Time;durP1;ratioP1;P1;durP2;ratioP2;P2;SDS_P1;SDS_P2;PMS_P1;PMS_P2;Temp;Humidity;BMP_temperature;BMP_pressure;BME280_temperature;BME280_humidity;BME280_pressure;Samples;Min_cycle;Max_cycle;Signal;HPM_P1;HPM_P2
2022/03/24 00:02:12;;;;;;;;;;;15.40;23.50;;;;;;4995056;28;19910;-64
2022/03/24 00:04:38;;;;;;;;;;;15.50;23.60;;;;;;4995523;28;19909;-66
2022/03/24 00:07:04;;;;;;;;;;;15.40;23.50;;;;;;4995315;28;19910;-65
2022/03/24 00:09:29;;;;;;;;;;;15.40;23.50;;;;;;4994213;28;20470;-64
2022/03/24 00:11:55;;;;;;;;;;;15.40;23.70;;;;;;4995251;28;20012;-65
2022/03/24 00:14:21;;;;;;;;;;;15.50;23.30;;;;;;4995003;28;19988;-67
2022/03/24 00:16:47;;;;;;;;;;;15.60;23.20;;;;;;4995092;28;19979;-67
2022/03/24 00:19:13;;;;;;;;;;;15.50;24.10;;;;;;4995182;28;19914;-67
2022/03/24 00:21:38;;;;;;;;;;;15.00;26.20;;;;;;4995094;28;19916;-68
2022/03/24 00:24:04;;;;;;;;;;;14.50;28.60;;;;;;4994952;28;19917;-67
2022/03/24 00:26:30;;;;;;;;;;;14.00;29.60;;;;;;4994974;28;19909;-66
2022/03/24 00:28:55;;;;;;;;;;;13.60;30.90;;;;;;4994951;28;20004;-67
2022/03/24 00:31:21;;;;;;;;;;;13.50;31.70;;;;;;4995229;28;19956;-66
2022/03/24 00:33:46;;;;;;;;;;;13.40;32.10;;;;;;4994936;28;19960;-67
2022/03/24 00:36:14;;;;;;;;;;;13.40;32.30;;;;;;4995015;28;20277;-65
2022/03/24 00:38:40;;;;;;;;;;;13.40;32.40;;;;;;4994826;28;20397;-66
2022/03/24 00:41:05;;;;;;;;;;;13.30;32.40;;;;;;4994975;28;19914;-68
2022/03/24 00:43:32;;;;;;;;;;;13.20;32.30;;;;;;4994610;28;20433;-66
2022/03/24 00:45:58;;;;;;;;;;;13.10;33.00;;;;;;4994943;28;20004;-66
2022/03/24 00:48:24;;;;;;;;;;;12.90;32.90;;;;;;4994929;28;20308;-66
2022/03/24 00:50:50;;;;;;;;;;;12.70;32.50;;;;;;4994123;28;19913;-66
2022/03/24 00:53:16;;;;;;;;;;;12.40;33.20;;;;;;4994807;28;20056;-67
2022/03/24 00:55:43;;;;;;;;;;;12.40;34.20;;;;;;4994804;28;19910;-68
2022/03/24 00:58:10;;;;;;;;;;;12.40;34.70;;;;;;4994599;28;19910;-66
2022/03/24 01:00:36;;;;;;;;;;;12.30;35.20;;;;;;4994556;28;19948;-66
2022/03/24 01:03:06;;;;;;;;;;;12.20;35.40;;;;;;4994330;28;19913;-64
2022/03/24 01:05:34;;;;;;;;;;;12.20;35.40;;;;;;4994392;28;19910;-67
2022/03/24 01:08:00;;;;;;;;;;;12.20;35.40;;;;;;4994434;28;20273;-67
2022/03/24 01:10:25;;;;;;;;;;;12.20;35.00;;;;;;4994132;28;20349;-67
2022/03/24 01:12:51;;;;;;;;;;;12.30;34.50;;;;;;4994401;28;20337;-68
2022/03/24 01:15:18;;;;;;;;;;;12.20;34.50;;;;;;4994297;28;19914;-67
2022/03/24 03:14:38;;;;;;;;;;;10.50;36.40;;;;;;4996117;28;19929;-66
2022/03/24 03:17:04;;;;;;;;;;;10.50;36.00;;;;;;4996592;28;19913;-67
2022/03/24 03:19:29;;;;;;;;;;;10.60;35.00;;;;;;4996662;28;19916;-67
2022/03/24 03:21:55;;;;;;;;;;;10.80;34.70;;;;;;4996401;28;19910;-67
2022/03/24 03:24:22;;;;;;;;;;;10.80;34.40;;;;;;4996332;28;19910;-67
2022/03/24 03:31:58;;;;;;;;;;;10.90;34.50;;;;;;5197665;23;19925;-56
2022/03/24 03:34:24;;;;;;;;;;;11.20;32.20;;;;;;5035366;28;19916;-58
2022/03/24 03:36:51;;;;;;;;;;;11.30;32.20;;;;;;5034687;28;19909;-56
2022/03/24 03:39:17;;;;;;;;;;;11.30;32.10;;;;;;5024079;28;20000;-60
2022/03/24 03:41:42;;;;;;;;;;;11.30;32.40;;;;;;5015610;28;19953;-57
2022/03/24 03:44:08;;;;;;;;;;;11.40;32.10;;;;;;5016189;28;19909;-57
2022/03/24 03:46:34;;;;;;;;;;;11.20;33.20;;;;;;5016047;28;20048;-57
2022/03/24 03:49:00;;;;;;;;;;;11.20;32.90;;;;;;5015715;28;19909;-67
2022/03/24 03:51:29;;;;;;;;;;;11.20;32.60;;;;;;5015371;28;19917;-67
2022/03/24 03:53:55;;;;;;;;;;;11.30;31.80;;;;;;5015500;28;19999;-61
2022/03/24 03:56:21;;;;;;;;;;;11.40;31.80;;;;;;5015307;28;19917;-60
2022/03/24 03:58:47;;;;;;;;;;;11.40;31.70;;;;;;5015448;28;20315;-58
2022/03/24 04:01:12;;;;;;;;;;;11.40;32.30;;;;;;5015763;28;19909;-65
2022/03/24 04:03:38;;;;;;;;;;;11.50;32.50;;;;;;5015429;28;19910;-65
2022/03/24 04:06:06;;;;;;;;;;;11.40;32.50;;;;;;5030613;28;20333;-55
2022/03/24 04:08:31;;;;;;;;;;;11.50;32.10;;;;;;5015201;28;19920;-56
2022/03/24 04:10:57;;;;;;;;;;;11.60;31.30;;;;;;5015116;28;19914;-67
2022/03/24 04:13:23;;;;;;;;;;;11.80;29.80;;;;;;5015389;28;19909;-68
2022/03/24 04:15:49;;;;;;;;;;;11.80;30.60;;;;;;5015351;28;19963;-66
2022/03/24 04:18:16;;;;;;;;;;;11.80;31.10;;;;;;5014934;28;19948;-67
2022/03/24 04:20:42;;;;;;;;;;;11.70;30.90;;;;;;5015113;28;20004;-65
2022/03/24 04:23:07;;;;;;;;;;;11.60;31.50;;;;;;5014989;28;19909;-66
2022/03/24 04:25:34;;;;;;;;;;;11.50;31.80;;;;;;5014804;28;19910;-66
2022/03/24 04:28:00;;;;;;;;;;;11.40;32.10;;;;;;5015028;28;19916;-62
2022/03/24 04:30:26;;;;;;;;;;;11.50;31.70;;;;;;5014816;28;19917;-67
2022/03/24 04:32:52;;;;;;;;;;;11.40;32.60;;;;;;5014881;28;19948;-67
2022/03/24 04:35:18;;;;;;;;;;;11.30;33.50;;;;;;5014803;28;19956;-56
2022/03/24 04:37:44;;;;;;;;;;;11.00;34.20;;;;;;5014663;28;19909;-55
2022/03/24 04:40:15;;;;;;;;;;;10.90;34.40;;;;;;5014488;28;20064;-63
2022/03/24 04:42:41;;;;;;;;;;;10.80;35.00;;;;;;5014863;28;19952;-56
2022/03/24 04:45:07;;;;;;;;;;;10.80;35.00;;;;;;5014574;28;19909;-67
2022/03/24 04:47:32;;;;;;;;;;;10.70;35.90;;;;;;5014518;28;20433;-60
2022/03/24 04:49:58;;;;;;;;;;;10.50;35.90;;;;;;5014404;28;19917;-67
2022/03/24 04:52:24;;;;;;;;;;;10.60;35.40;;;;;;5014486;28;20281;-56
2022/03/24 04:54:50;;;;;;;;;;;10.60;34.80;;;;;;5014406;28;19963;-54
2022/03/24 04:57:15;;;;;;;;;;;10.60;34.80;;;;;;5014393;28;19909;-58
2022/03/24 04:59:42;;;;;;;;;;;10.40;35.80;;;;;;5014511;28;19921;-64
2022/03/24 05:02:08;;;;;;;;;;;10.40;35.50;;;;;;5014476;28;19917;-65
2022/03/24 05:04:34;;;;;;;;;;;10.50;35.20;;;;;;5014414;28;19910;-55
2022/03/24 05:06:59;;;;;;;;;;;10.40;35.70;;;;;;5014418;28;19909;-55
2022/03/24 05:09:25;;;;;;;;;;;10.30;36.00;;;;;;5014059;28;20285;-54
2022/03/24 05:11:51;;;;;;;;;;;10.30;36.20;;;;;;5014130;28;19936;-55
2022/03/24 05:14:16;;;;;;;;;;;10.20;36.50;;;;;;5014331;28;19909;-55
2022/03/24 05:16:42;;;;;;;;;;;10.20;36.50;;;;;;5014420;28;19984;-56
2022/03/24 05:19:07;;;;;;;;;;;10.30;35.90;;;;;;5013967;28;19909;-56
2022/03/24 05:21:33;;;;;;;;;;;10.20;36.30;;;;;;5013985;28;19909;-56
2022/03/24 05:23:59;;;;;;;;;;;10.30;36.30;;;;;;5014135;28;19984;-55
2022/03/24 05:26:25;;;;;;;;;;;10.20;36.40;;;;;;5014213;28;19910;-54
2022/03/24 05:28:51;;;;;;;;;;;10.20;36.90;;;;;;5014036;28;20020;-56
2022/03/24 05:31:16;;;;;;;;;;;10.20;36.50;;;;;;5014307;28;20353;-60
2022/03/24 05:33:43;;;;;;;;;;;10.30;36.30;;;;;;5013826;28;20020;-55
2022/03/24 05:36:09;;;;;;;;;;;10.30;35.80;;;;;;5014204;28;19909;-56
2022/03/24 05:38:34;;;;;;;;;;;10.30;36.60;;;;;;5013669;28;19963;-56
2022/03/24 05:41:00;;;;;;;;;;;10.30;36.50;;;;;;5029111;28;19909;-55
2022/03/24 05:43:26;;;;;;;;;;;10.20;36.90;;;;;;5013812;28;20322;-55
2022/03/24 05:45:51;;;;;;;;;;;10.30;36.50;;;;;;5013906;28;19913;-54
2022/03/24 05:48:17;;;;;;;;;;;10.30;36.60;;;;;;5013712;28;20356;-56
2022/03/24 05:50:43;;;;;;;;;;;10.30;36.70;;;;;;5013995;28;19956;-55
2022/03/24 05:53:09;;;;;;;;;;;10.30;38.20;;;;;;5013959;28;20380;-55
2022/03/24 05:55:37;;;;;;;;;;;10.30;37.20;;;;;;5013890;28;19909;-55
2022/03/24 05:58:04;;;;;;;;;;;10.30;36.80;;;;;;5013715;28;19909;-56
2022/03/24 06:00:29;;;;;;;;;;;10.30;37.70;;;;;;5014946;28;20327;-66
2022/03/24 06:02:55;;;;;;;;;;;10.50;37.00;;;;;;5017428;28;19956;-58
2022/03/24 06:05:22;;;;;;;;;;;10.50;37.00;;;;;;5017611;28;20008;-66
2022/03/24 06:07:48;;;;;;;;;;;10.60;36.70;;;;;;5017395;28;20444;-67
2022/03/24 06:10:13;;;;;;;;;;;10.60;37.50;;;;;;5017238;28;20012;-67
2022/03/24 06:12:39;;;;;;;;;;;10.60;37.60;;;;;;5017344;28;19920;-67
2022/03/24 06:15:06;;;;;;;;;;;10.50;38.40;;;;;;5017419;28;19997;-67
2022/03/24 06:17:31;;;;;;;;;;;10.40;39.60;;;;;;5017179;28;19932;-63
2022/03/24 06:19:57;;;;;;;;;;;10.40;38.90;;;;;;5017121;28;19909;-68
2022/03/24 06:22:22;;;;;;;;;;;10.50;38.80;;;;;;5017306;28;20008;-67
2022/03/24 06:24:48;;;;;;;;;;;10.50;38.20;;;;;;5017080;28;20288;-67
2022/03/24 06:27:13;;;;;;;;;;;10.60;38.50;;;;;;5015801;28;19910;-55
2022/03/24 06:29:39;;;;;;;;;;;10.60;38.30;;;;;;5017294;28;19910;-65
2022/03/24 06:32:06;;;;;;;;;;;10.70;38.00;;;;;;5016565;28;20293;-59
2022/03/24 06:34:31;;;;;;;;;;;11.30;49.90;;;;;;5016789;28;19921;-59
2022/03/24 06:36:57;;;;;;;;;;;12.00;49.30;;;;;;5016966;28;19913;-60
2022/03/24 06:39:23;;;;;;;;;;;12.50;42.90;;;;;;5016880;28;19910;-61
2022/03/24 06:41:48;;;;;;;;;;;13.10;39.00;;;;;;5016827;28;19909;-60
2022/03/24 06:44:14;;;;;;;;;;;13.50;36.00;;;;;;5016046;28;20435;-61
2022/03/24 06:46:40;;;;;;;;;;;13.80;35.40;;;;;;5013124;28;19914;-60
2022/03/24 06:49:06;;;;;;;;;;;14.10;34.90;;;;;;5015966;28;20369;-59
2022/03/24 06:51:32;;;;;;;;;;;14.20;33.60;;;;;;5015112;28;20066;-60
2022/03/24 06:53:57;;;;;;;;;;;14.60;33.90;;;;;;5015740;28;19910;-60
2022/03/24 06:56:24;;;;;;;;;;;14.80;34.10;;;;;;5015364;28;19913;-57
2022/03/24 06:58:49;;;;;;;;;;;15.10;32.10;;;;;;5013986;28;19913;-58
2022/03/24 07:01:15;;;;;;;;;;;15.20;32.10;;;;;;5015839;28;19909;-63
2022/03/24 07:03:41;;;;;;;;;;;15.50;31.70;;;;;;5015809;28;19994;-64
2022/03/24 07:06:07;;;;;;;;;;;15.70;30.10;;;;;;5015470;28;19917;-67
2022/03/24 07:08:32;;;;;;;;;;;15.90;30.40;;;;;;5014977;28;19917;-55
2022/03/24 07:10:58;;;;;;;;;;;16.10;29.20;;;;;;5015153;28;19925;-60
2022/03/24 07:13:24;;;;;;;;;;;16.00;28.70;;;;;;5015236;28;19910;-59
2022/03/24 07:15:49;;;;;;;;;;;15.70;29.00;;;;;;5015519;28;19909;-60
2022/03/24 07:18:15;;;;;;;;;;;15.70;29.20;;;;;;5015475;28;19956;-63
2022/03/24 07:20:41;;;;;;;;;;;15.90;29.20;;;;;;5015562;28;19913;-63
2022/03/24 07:23:08;;;;;;;;;;;16.10;28.90;;;;;;5015561;28;20280;-58
2022/03/24 07:25:36;;;;;;;;;;;16.30;28.70;;;;;;5015489;28;19910;-60
2022/03/24 07:28:02;;;;;;;;;;;16.40;28.90;;;;;;5015252;28;20052;-61
2022/03/24 07:30:28;;;;;;;;;;;16.50;29.10;;;;;;5015531;28;20275;-63
2022/03/24 07:32:57;;;;;;;;;;;16.80;29.80;;;;;;5015239;28;20024;-61
2022/03/24 07:35:24;;;;;;;;;;;17.00;29.50;;;;;;5012515;28;20264;-64
2022/03/24 07:37:50;;;;;;;;;;;17.10;28.70;;;;;;5015181;28;20328;-58
2022/03/24 07:40:18;;;;;;;;;;;17.30;28.20;;;;;;5015518;28;19914;-55
2022/03/24 07:42:47;;;;;;;;;;;17.40;28.00;;;;;;5014157;28;19913;-67
2022/03/24 07:45:12;;;;;;;;;;;17.50;27.10;;;;;;5004534;28;19914;-60
2022/03/24 07:47:58;;;;;;;;;;;17.60;26.10;;;;;;5003347;28;19925;-59
2022/03/24 07:50:24;;;;;;;;;;;17.70;25.90;;;;;;5003131;28;20369;-60
2022/03/24 07:52:49;;;;;;;;;;;17.70;26.00;;;;;;5002887;28;19925;-66
2022/03/24 07:55:15;;;;;;;;;;;17.70;26.60;;;;;;5002349;28;19920;-59
2022/03/24 07:57:40;;;;;;;;;;;17.90;26.10;;;;;;5002269;28;20326;-56
2022/03/24 08:00:08;;;;;;;;;;;18.00;26.30;;;;;;5009866;28;20357;-60
2022/03/24 08:02:41;;;;;;;;;;;17.90;26.20;;;;;;5013313;28;19964;-57
2022/03/24 08:05:07;;;;;;;;;;;17.60;27.30;;;;;;5014742;28;19944;-59
2022/03/24 08:07:32;;;;;;;;;;;17.60;28.80;;;;;;5014862;28;20462;-57
2022/03/24 08:09:58;;;;;;;;;;;17.60;28.40;;;;;;5014795;28;19915;-57
2022/03/24 08:12:23;;;;;;;;;;;17.20;28.70;;;;;;5014857;28;19940;-58
2022/03/24 08:14:49;;;;;;;;;;;17.20;29.90;;;;;;5014886;28;19956;-58
2022/03/24 08:17:14;;;;;;;;;;;17.50;34.40;;;;;;5014589;28;19914;-58
2022/03/24 08:19:40;;;;;;;;;;;18.00;34.40;;;;;;5014608;28;19921;-61
2022/03/24 08:22:06;;;;;;;;;;;18.30;33.00;;;;;;5013674;28;19980;-59
2022/03/24 08:24:31;;;;;;;;;;;18.60;31.80;;;;;;5011628;28;20000;-56
2022/03/24 08:26:57;;;;;;;;;;;18.50;30.50;;;;;;5014192;28;19948;-56
2022/03/24 08:29:23;;;;;;;;;;;18.00;31.60;;;;;;5014082;28;19932;-55
2022/03/24 08:31:49;;;;;;;;;;;17.60;30.90;;;;;;5014638;28;19918;-57
2022/03/24 08:34:15;;;;;;;;;;;17.60;31.30;;;;;;5014989;28;19959;-58
2022/03/24 08:36:41;;;;;;;;;;;17.60;32.80;;;;;;5014680;28;20370;-57
2022/03/24 08:39:07;;;;;;;;;;;17.80;32.60;;;;;;5014065;28;19913;-60
2022/03/24 08:41:32;;;;;;;;;;;17.80;32.40;;;;;;5014130;28;20316;-57
2022/03/24 08:43:58;;;;;;;;;;;17.70;31.00;;;;;;5014423;28;19963;-59
2022/03/24 08:46:25;;;;;;;;;;;17.80;31.10;;;;;;5014280;28;20371;-58
2022/03/24 08:48:52;;;;;;;;;;;18.10;31.30;;;;;;5014503;28;19957;-58
2022/03/24 08:51:17;;;;;;;;;;;18.20;28.80;;;;;;5014266;28;20392;-58
2022/03/24 08:53:43;;;;;;;;;;;17.90;27.30;;;;;;5014581;28;19910;-62
2022/03/24 08:56:10;;;;;;;;;;;17.90;27.50;;;;;;5014265;28;19932;-57
2022/03/24 08:58:35;;;;;;;;;;;17.70;26.70;;;;;;5013973;28;20340;-56
2022/03/24 09:01:01;;;;;;;;;;;17.60;25.60;;;;;;5014073;28;19910;-58
2022/03/24 09:03:27;;;;;;;;;;;17.40;25.20;;;;;;5014214;28;20380;-57
2022/03/24 09:05:53;;;;;;;;;;;17.20;23.80;;;;;;5014165;28;20257;-56
2022/03/24 09:08:18;;;;;;;;;;;17.20;24.10;;;;;;5014215;28;19917;-56
2022/03/24 09:10:47;;;;;;;;;;;17.10;24.30;;;;;;5014047;28;19914;-56
2022/03/24 09:13:12;;;;;;;;;;;17.00;24.60;;;;;;5013999;28;19916;-56
2022/03/24 09:15:38;;;;;;;;;;;17.30;25.70;;;;;;5013926;28;19913;-56
2022/03/24 09:18:05;;;;;;;;;;;17.40;24.00;;;;;;5013558;28;19914;-57
2022/03/24 09:20:30;;;;;;;;;;;17.40;23.50;;;;;;5013442;28;19910;-57
2022/03/24 09:22:56;;;;;;;;;;;17.40;23.60;;;;;;5013469;28;19964;-57
2022/03/24 09:25:21;;;;;;;;;;;17.30;23.30;;;;;;5013427;28;19967;-56
2022/03/24 09:27:47;;;;;;;;;;;17.20;23.00;;;;;;5013447;28;19972;-57
2022/03/24 09:30:15;;;;;;;;;;;17.20;22.90;;;;;;5012135;28;19917;-54
2022/03/24 09:32:41;;;;;;;;;;;17.50;23.30;;;;;;5013713;28;20407;-56
2022/03/24 09:35:07;;;;;;;;;;;17.70;23.30;;;;;;5016160;28;19910;-56
2022/03/24 09:37:33;;;;;;;;;;;17.60;23.70;;;;;;5018229;28;19909;-57
2022/03/24 09:40:00;;;;;;;;;;;17.60;24.00;;;;;;5017784;28;19949;-56
2022/03/24 09:42:27;;;;;;;;;;;17.80;23.20;;;;;;5017976;28;19909;-57
2022/03/24 09:44:55;;;;;;;;;;;18.00;24.60;;;;;;5017874;28;19909;-56
2022/03/24 09:47:21;;;;;;;;;;;18.20;25.30;;;;;;5017853;28;20250;-57
2022/03/24 09:49:47;;;;;;;;;;;18.30;24.60;;;;;;5017741;28;19909;-54
2022/03/24 09:52:13;;;;;;;;;;;18.40;25.20;;;;;;5017486;28;19940;-58
2022/03/24 09:54:39;;;;;;;;;;;18.50;35.60;;;;;;5017985;28;19909;-54
2022/03/24 09:57:05;;;;;;;;;;;18.80;33.10;;;;;;5017588;28;19936;-55
2022/03/24 09:59:31;;;;;;;;;;;19.00;31.50;;;;;;5015425;28;20012;-57
2022/03/24 10:01:57;;;;;;;;;;;19.20;31.80;;;;;;5016212;28;19996;-55
2022/03/24 10:04:22;;;;;;;;;;;19.50;31.20;;;;;;5016208;28;20383;-54
2022/03/24 10:07:03;;;;;;;;;;;19.60;28.60;;;;;;5017178;28;19921;-55
2022/03/24 10:09:35;;;;;;;;;;;19.80;29.60;;;;;;5016945;28;19917;-53
2022/03/24 10:12:00;;;;;;;;;;;19.90;29.30;;;;;;5017189;28;19921;-55
2022/03/24 10:14:26;;;;;;;;;;;20.00;28.70;;;;;;5017188;28;19972;-55
2022/03/24 10:16:51;;;;;;;;;;;20.00;24.80;;;;;;5016782;28;20319;-55
2022/03/24 10:19:18;;;;;;;;;;;19.90;24.70;;;;;;5017202;28;20388;-55
2022/03/24 10:21:45;;;;;;;;;;;20.00;28.40;;;;;;5017039;28;19916;-56
2022/03/24 10:24:12;;;;;;;;;;;20.20;28.20;;;;;;5016804;28;19916;-54
2022/03/24 10:26:45;;;;;;;;;;;20.20;24.90;;;;;;5016937;28;19909;-55
2022/03/24 10:29:12;;;;;;;;;;;19.90;24.10;;;;;;5016843;28;19909;-55
2022/03/24 10:31:39;;;;;;;;;;;19.70;25.00;;;;;;5016414;28;19917;-56
2022/03/24 10:34:06;;;;;;;;;;;19.50;25.80;;;;;;5016818;28;19917;-55
2022/03/24 10:36:32;;;;;;;;;;;19.30;26.40;;;;;;5016387;28;19921;-56
2022/03/24 10:39:01;;;;;;;;;;;19.10;25.70;;;;;;5016922;28;19911;-55
2022/03/24 10:41:28;;;;;;;;;;;18.80;26.10;;;;;;5016207;28;19964;-55
2022/03/24 10:43:54;;;;;;;;;;;18.90;26.60;;;;;;5032075;28;20288;-56
2022/03/24 10:46:22;;;;;;;;;;;18.90;26.80;;;;;;5012920;28;19936;-55
2022/03/24 10:48:48;;;;;;;;;;;19.20;26.10;;;;;;5005632;28;19913;-56
2022/03/24 10:51:23;;;;;;;;;;;18.90;23.60;;;;;;5008624;28;19945;-58
2022/03/24 10:53:48;;;;;;;;;;;18.70;24.40;;;;;;5006568;28;20384;-56
2022/03/24 10:56:17;;;;;;;;;;;19.00;28.00;;;;;;5016705;28;19996;-56
2022/03/24 10:58:46;;;;;;;;;;;19.40;26.20;;;;;;5016454;28;19909;-57
2022/03/24 11:01:14;;;;;;;;;;;19.70;25.90;;;;;;5016700;28;19920;-70
2022/03/24 11:03:40;;;;;;;;;;;19.80;24.50;;;;;;5016539;28;19914;-70
2022/03/24 11:06:13;;;;;;;;;;;20.00;23.60;;;;;;5005646;28;19964;-72
2022/03/24 11:08:40;;;;;;;;;;;19.80;26.10;;;;;;4996833;28;19913;-72
2022/03/24 11:11:06;;;;;;;;;;;19.30;22.70;;;;;;4996836;28;20285;-69
2022/03/24 11:13:40;;;;;;;;;;;19.20;23.60;;;;;;4996395;28;19929;-69
2022/03/24 11:16:06;;;;;;;;;;;19.30;23.00;;;;;;4996353;28;20254;-54
2022/03/24 11:18:32;;;;;;;;;;;19.60;24.80;;;;;;4997015;28;19968;-58
2022/03/24 11:21:03;;;;;;;;;;;20.00;23.70;;;;;;4996512;28;19963;-58
2022/03/24 11:23:31;;;;;;;;;;;20.00;23.10;;;;;;4996470;28;19917;-54
2022/03/24 11:25:57;;;;;;;;;;;19.80;21.40;;;;;;4996521;28;19916;-55
2022/03/24 11:28:25;;;;;;;;;;;19.60;21.10;;;;;;4996306;28;20044;-55
2022/03/24 11:30:51;;;;;;;;;;;19.80;24.50;;;;;;4996069;28;19914;-57
2022/03/24 11:33:17;;;;;;;;;;;20.20;24.30;;;;;;4996227;28;19929;-55
2022/03/24 11:35:43;;;;;;;;;;;20.50;25.10;;;;;;4996352;28;19991;-56
2022/03/24 11:38:09;;;;;;;;;;;20.80;23.60;;;;;;4996303;28;20001;-58
2022/03/24 11:40:35;;;;;;;;;;;21.10;23.70;;;;;;4998580;28;19992;-55
2022/03/24 11:43:05;;;;;;;;;;;21.00;22.60;;;;;;5003772;28;19914;-56
2022/03/24 11:45:31;;;;;;;;;;;21.20;24.20;;;;;;4997077;28;19914;-71
2022/03/24 11:48:05;;;;;;;;;;;21.40;24.50;;;;;;4995759;28;19916;-69
2022/03/24 11:50:36;;;;;;;;;;;21.20;20.90;;;;;;4996032;28;19917;-68
2022/03/24 11:53:15;;;;;;;;;;;21.00;22.90;;;;;;4996033;28;19914;-67
2022/03/24 11:55:44;;;;;;;;;;;20.70;21.70;;;;;;4995775;28;19994;-67
2022/03/24 11:58:09;;;;;;;;;;;21.00;23.40;;;;;;4994529;28;19965;-64
2022/03/24 12:00:36;;;;;;;;;;;21.20;21.90;;;;;;4995652;28;19910;-62
2022/03/24 12:03:02;;;;;;;;;;;21.30;22.60;;;;;;4995722;28;19953;-65
2022/03/24 12:05:46;;;;;;;;;;;21.40;21.10;;;;;;4995741;28;19918;-63
2022/03/24 12:08:11;;;;;;;;;;;21.60;22.40;;;;;;4995410;28;19910;-60
2022/03/24 12:10:37;;;;;;;;;;;21.00;19.70;;;;;;4995656;28;19925;-61
2022/03/24 12:13:19;;;;;;;;;;;20.70;20.40;;;;;;4994225;28;19956;-63
2022/03/24 12:16:05;;;;;;;;;;;20.50;20.90;;;;;;4995366;28;19953;-61
2022/03/24 12:18:44;;;;;;;;;;;20.50;21.90;;;;;;4995049;28;20251;-64
2022/03/24 12:21:20;;;;;;;;;;;20.30;22.10;;;;;;4994936;28;19917;-59
2022/03/24 12:24:04;;;;;;;;;;;20.40;23.40;;;;;;4994969;28;19910;-56
2022/03/24 12:26:30;;;;;;;;;;;20.20;23.40;;;;;;5010079;28;19910;-59
2022/03/24 12:29:11;;;;;;;;;;;20.40;22.20;;;;;;4994808;28;19913;-59
2022/03/24 12:31:55;;;;;;;;;;;20.70;22.00;;;;;;4994878;28;20276;-63
2022/03/24 12:34:24;;;;;;;;;;;20.80;21.10;;;;;;4994872;28;19988;-65
2022/03/24 12:36:50;;;;;;;;;;;20.20;21.70;;;;;;4994738;28;19909;-57
2022/03/24 12:39:37;;;;;;;;;;;20.30;22.90;;;;;;4994543;28;19996;-63
2022/03/24 12:42:05;;;;;;;;;;;20.40;24.50;;;;;;4994502;28;19910;-62
2022/03/24 12:44:49;;;;;;;;;;;20.10;21.30;;;;;;4994702;28;19909;-63
2022/03/24 12:47:34;;;;;;;;;;;19.80;23.30;;;;;;4994603;28;19909;-60
2022/03/24 12:50:06;;;;;;;;;;;20.30;24.80;;;;;;4994351;28;20430;-60
2022/03/24 12:52:50;;;;;;;;;;;20.70;22.00;;;;;;4994248;28;20329;-64
2022/03/24 12:55:32;;;;;;;;;;;20.80;20.10;;;;;;4994602;28;19914;-64
2022/03/24 12:58:02;;;;;;;;;;;20.80;20.30;;;;;;4994488;28;19941;-66
2022/03/24 13:00:29;;;;;;;;;;;20.90;20.50;;;;;;4994105;28;19910;-60
2022/03/24 13:02:55;;;;;;;;;;;20.60;22.30;;;;;;4992924;28;19945;-60
2022/03/24 13:05:25;;;;;;;;;;;20.70;21.00;;;;;;4994413;28;19957;-62
2022/03/24 13:07:52;;;;;;;;;;;20.50;21.50;;;;;;4994360;28;19910;-60
2022/03/24 13:10:18;;;;;;;;;;;20.20;21.30;;;;;;4999347;28;19931;-62
2022/03/24 13:12:45;;;;;;;;;;;20.40;21.20;;;;;;5001710;28;20440;-62
2022/03/24 13:15:18;;;;;;;;;;;20.00;20.40;;;;;;5003083;28;19918;-61
2022/03/24 13:17:48;;;;;;;;;;;19.80;21.80;;;;;;5001473;28;20303;-60
2022/03/24 13:20:14;;;;;;;;;;;20.20;22.80;;;;;;4994382;28;20004;-61
2022/03/24 13:22:40;;;;;;;;;;;20.50;22.70;;;;;;4994521;28;19963;-61
2022/03/24 13:25:07;;;;;;;;;;;20.60;21.80;;;;;;4996406;28;19932;-60
2022/03/24 13:27:34;;;;;;;;;;;20.60;21.80;;;;;;4994070;28;19914;-62
2022/03/24 13:30:04;;;;;;;;;;;20.70;20.40;;;;;;4993806;28;19917;-62
2022/03/24 13:32:30;;;;;;;;;;;20.30;18.90;;;;;;4993874;28;19972;-62
2022/03/24 13:34:59;;;;;;;;;;;19.90;19.70;;;;;;4994117;28;19976;-61
2022/03/24 13:37:29;;;;;;;;;;;19.50;19.70;;;;;;4993834;28;19999;-61
2022/03/24 13:39:56;;;;;;;;;;;19.50;21.90;;;;;;4993928;28;19910;-60
2022/03/24 13:42:22;;;;;;;;;;;19.50;19.90;;;;;;4993955;28;19965;-60
2022/03/24 13:44:49;;;;;;;;;;;19.30;19.20;;;;;;4993856;28;19910;-61
2022/03/24 13:47:16;;;;;;;;;;;19.50;20.80;;;;;;4993866;28;20012;-64
2022/03/24 13:49:42;;;;;;;;;;;19.70;19.90;;;;;;4994299;28;20327;-62
2022/03/24 13:52:08;;;;;;;;;;;19.70;21.70;;;;;;4992374;28;19922;-59
2022/03/24 13:54:34;;;;;;;;;;;19.90;20.40;;;;;;4993656;28;19914;-60
2022/03/24 13:57:00;;;;;;;;;;;20.10;20.90;;;;;;4994072;28;20274;-59
2022/03/24 13:59:26;;;;;;;;;;;20.20;22.50;;;;;;4993589;28;19910;-59
2022/03/24 14:01:58;;;;;;;;;;;20.20;21.50;;;;;;4993738;28;19920;-59
2022/03/24 14:04:24;;;;;;;;;;;20.20;21.40;;;;;;4993453;28;20377;-60
2022/03/24 14:07:06;;;;;;;;;;;19.90;22.70;;;;;;4993647;28;19972;-61
2022/03/24 14:09:32;;;;;;;;;;;19.90;22.00;;;;;;4993577;28;19920;-62
2022/03/24 14:12:02;;;;;;;;;;;19.90;22.50;;;;;;4993544;28;20286;-62
2022/03/24 14:14:27;;;;;;;;;;;20.00;23.40;;;;;;4994022;28;19957;-61
2022/03/24 14:16:53;;;;;;;;;;;19.80;24.10;;;;;;4995783;28;20370;-61
2022/03/24 14:19:19;;;;;;;;;;;19.90;23.50;;;;;;5012198;28;20419;-57
2022/03/24 14:21:49;;;;;;;;;;;19.80;21.70;;;;;;5012683;28;19909;-55
2022/03/24 14:24:30;;;;;;;;;;;19.90;23.10;;;;;;5016380;28;19913;-57
2022/03/24 14:26:57;;;;;;;;;;;19.80;23.60;;;;;;5015237;28;19967;-58
2022/03/24 14:29:22;;;;;;;;;;;19.90;22.30;;;;;;5017077;28;19913;-61
2022/03/24 14:32:06;;;;;;;;;;;19.70;20.60;;;;;;5016658;28;20000;-57
2022/03/24 14:34:32;;;;;;;;;;;19.70;20.90;;;;;;5016463;28;20036;-57
2022/03/24 14:37:06;;;;;;;;;;;19.70;21.10;;;;;;5016630;28;20400;-59
2022/03/24 14:39:32;;;;;;;;;;;19.70;21.50;;;;;;5016181;28;20040;-54
2022/03/24 14:41:57;;;;;;;;;;;19.60;22.80;;;;;;5012819;28;20384;-55
2022/03/24 14:44:24;;;;;;;;;;;19.60;21.90;;;;;;5014392;28;19920;-57
2022/03/24 14:46:50;;;;;;;;;;;19.60;21.10;;;;;;5016076;28;19909;-57
2022/03/24 14:49:15;;;;;;;;;;;19.30;21.60;;;;;;5014588;28;19963;-56
2022/03/24 14:51:41;;;;;;;;;;;19.30;22.10;;;;;;5016117;28;19963;-54
2022/03/24 14:54:08;;;;;;;;;;;19.40;22.40;;;;;;5016159;28;19909;-55
2022/03/24 14:56:34;;;;;;;;;;;19.50;25.20;;;;;;5015982;28;19910;-57
2022/03/24 14:59:00;;;;;;;;;;;19.60;27.00;;;;;;5015861;28;19909;-56
2022/03/24 15:01:26;;;;;;;;;;;19.70;28.30;;;;;;5015957;28;20001;-54
2022/03/24 15:03:51;;;;;;;;;;;19.70;28.20;;;;;;5015978;28;19909;-56
2022/03/24 15:06:17;;;;;;;;;;;19.30;28.30;;;;;;5015937;28;19956;-55
2022/03/24 15:08:46;;;;;;;;;;;19.00;29.10;;;;;;5015833;28;19952;-55
2022/03/24 15:11:12;;;;;;;;;;;18.90;29.30;;;;;;5013679;28;20523;-55
2022/03/24 15:13:38;;;;;;;;;;;18.60;30.30;;;;;;5015586;28;19910;-55
2022/03/24 15:16:04;;;;;;;;;;;18.10;31.70;;;;;;5015364;28;19920;-55
2022/03/24 15:18:31;;;;;;;;;;;17.80;32.90;;;;;;5015671;28;19913;-58
2022/03/24 15:20:56;;;;;;;;;;;17.90;33.00;;;;;;5015728;28;20333;-57
2022/03/24 15:23:22;;;;;;;;;;;18.10;33.00;;;;;;5015774;28;19960;-55
2022/03/24 15:25:48;;;;;;;;;;;18.20;32.50;;;;;;5013917;28;19910;-55
2022/03/24 15:28:14;;;;;;;;;;;18.30;32.40;;;;;;5015159;28;20024;-55
2022/03/24 15:30:39;;;;;;;;;;;18.00;32.70;;;;;;5015169;28;19921;-54
2022/03/24 15:33:05;;;;;;;;;;;18.00;33.30;;;;;;5015073;28;20369;-56
2022/03/24 15:35:31;;;;;;;;;;;18.10;33.60;;;;;;5015262;28;19909;-56
2022/03/24 15:37:56;;;;;;;;;;;18.20;32.90;;;;;;5015134;28;19910;-54
2022/03/24 15:40:22;;;;;;;;;;;18.40;32.60;;;;;;5015146;28;19914;-56
2022/03/24 15:42:48;;;;;;;;;;;18.40;32.60;;;;;;5015006;28;20008;-56
2022/03/24 15:45:15;;;;;;;;;;;18.50;32.60;;;;;;5015004;28;20365;-56
2022/03/24 15:47:41;;;;;;;;;;;18.60;32.10;;;;;;5013251;28;20328;-54
2022/03/24 15:50:10;;;;;;;;;;;18.70;31.80;;;;;;5010179;28;20000;-55
2022/03/24 15:52:39;;;;;;;;;;;18.70;32.10;;;;;;5013682;28;20281;-55
2022/03/24 15:55:06;;;;;;;;;;;18.70;31.60;;;;;;5013708;28;19963;-56
2022/03/24 15:57:31;;;;;;;;;;;18.70;32.10;;;;;;5014663;28;19956;-54
2022/03/24 15:59:57;;;;;;;;;;;18.80;32.30;;;;;;5014457;28;19913;-56
2022/03/24 16:02:22;;;;;;;;;;;18.70;32.20;;;;;;5014644;28;19916;-60
2022/03/24 16:04:48;;;;;;;;;;;18.70;31.80;;;;;;5014654;28;19992;-61
2022/03/24 16:07:14;;;;;;;;;;;18.70;32.20;;;;;;5012603;28;19988;-55
2022/03/24 16:09:39;;;;;;;;;;;18.60;32.40;;;;;;5014524;28;19909;-56
2022/03/24 16:12:07;;;;;;;;;;;18.60;32.80;;;;;;5014175;28;19918;-63
2022/03/24 16:14:33;;;;;;;;;;;18.50;33.20;;;;;;5014447;28;19910;-55
2022/03/24 16:16:59;;;;;;;;;;;18.40;33.60;;;;;;5014314;28;19910;-54
2022/03/24 16:19:24;;;;;;;;;;;18.20;34.10;;;;;;5014226;28;19925;-61